sensor_id;sensor_type;location;lat;lon;timestamp;temperature;humidity
39103;DHT22;24847;48.218;16.414;2023-11-18T00:00:27;5.40;58.60
39103;DHT22;24847;48.218;16.414;2023-11-18T00:05:30;5.60;58.30
39103;DHT22;24847;48.218;16.414;2023-11-18T00:10:33;5.60;58.20
39103;DHT22;24847;48.218;16.414;2023-11-18T00:15:35;5.30;59.50
39103;DHT22;24847;48.218;16.414;2023-11-18T00:20:39;5.50;58.90
39103;DHT22;24847;48.218;16.414;2023-11-18T00:25:41;5.40;58.90
39103;DHT22;24847;48.218;16.414;2023-11-18T00:30:45;5.50;58.80
39103;DHT22;24847;48.218;16.414;2023-11-18T00:35:48;5.50;58.90
39103;DHT22;24847;48.218;16.414;2023-11-18T00:40:51;5.40;59.30
39103;DHT22;24847;48.218;16.414;2023-11-18T00:45:53;5.50;58.90
39103;DHT22;24847;48.218;16.414;2023-11-18T00:50:56;5.50;59.00
39103;DHT22;24847;48.218;16.414;2023-11-18T00:55:58;5.30;59.20
39103;DHT22;24847;48.218;16.414;2023-11-18T01:01:03;5.50;58.90
39103;DHT22;24847;48.218;16.414;2023-11-18T01:06:08;5.40;58.80
39103;DHT22;24847;48.218;16.414;2023-11-18T01:11:10;5.20;59.70
39103;DHT22;24847;48.218;16.414;2023-11-18T01:16:13;5.30;59.30
39103;DHT22;24847;48.218;16.414;2023-11-18T01:21:17;5.20;59.40
39103;DHT22;24847;48.218;16.414;2023-11-18T01:26:19;5.00;59.60
39103;DHT22;24847;48.218;16.414;2023-11-18T01:31:22;5.40;59.10
39103;DHT22;24847;48.218;16.414;2023-11-18T01:36:25;5.20;59.40
39103;DHT22;24847;48.218;16.414;2023-11-18T01:41:28;5.20;59.90
39103;DHT22;24847;48.218;16.414;2023-11-18T01:46:33;4.90;60.80
39103;DHT22;24847;48.218;16.414;2023-11-18T01:51:37;4.80;60.80
39103;DHT22;24847;48.218;16.414;2023-11-18T01:56:39;5.10;60.20
39103;DHT22;24847;48.218;16.414;2023-11-18T02:01:42;5.00;60.70
39103;DHT22;24847;48.218;16.414;2023-11-18T02:06:48;5.10;60.70
39103;DHT22;24847;48.218;16.414;2023-11-18T02:11:53;5.10;60.80
39103;DHT22;24847;48.218;16.414;2023-11-18T02:16:59;5.10;60.90
39103;DHT22;24847;48.218;16.414;2023-11-18T02:22:06;5.10;60.90
39103;DHT22;24847;48.218;16.414;2023-11-18T02:27:12;4.80;61.50
39103;DHT22;24847;48.218;16.414;2023-11-18T02:32:20;5.00;60.60
39103;DHT22;24847;48.218;16.414;2023-11-18T02:37:27;4.80;61.10
39103;DHT22;24847;48.218;16.414;2023-11-18T02:42:35;4.70;62.10
39103;DHT22;24847;48.218;16.414;2023-11-18T02:47:38;5.00;61.00
39103;DHT22;24847;48.218;16.414;2023-11-18T02:52:41;4.80;61.20
39103;DHT22;24847;48.218;16.414;2023-11-18T02:57:45;4.90;60.50
39103;DHT22;24847;48.218;16.414;2023-11-18T03:02:48;5.10;60.00
39103;DHT22;24847;48.218;16.414;2023-11-18T03:07:52;4.90;59.90
39103;DHT22;24847;48.218;16.414;2023-11-18T03:13:00;4.80;59.90
39103;DHT22;24847;48.218;16.414;2023-11-18T03:18:02;4.80;60.20
39103;DHT22;24847;48.218;16.414;2023-11-18T03:23:06;4.70;60.00
39103;DHT22;24847;48.218;16.414;2023-11-18T03:28:11;4.90;60.10
39103;DHT22;24847;48.218;16.414;2023-11-18T03:33:13;4.90;60.00
39103;DHT22;24847;48.218;16.414;2023-11-18T03:38:16;4.70;60.30
39103;DHT22;24847;48.218;16.414;2023-11-18T03:43:20;4.90;61.00
39103;DHT22;24847;48.218;16.414;2023-11-18T03:48:22;4.80;60.10
39103;DHT22;24847;48.218;16.414;2023-11-18T03:53:24;4.70;60.20
39103;DHT22;24847;48.218;16.414;2023-11-18T03:58:28;4.90;59.80
39103;DHT22;24847;48.218;16.414;2023-11-18T04:03:30;4.80;60.40
39103;DHT22;24847;48.218;16.414;2023-11-18T04:08:33;5.00;59.50
39103;DHT22;24847;48.218;16.414;2023-11-18T04:13:55;4.90;60.00
39103;DHT22;24847;48.218;16.414;2023-11-18T04:18:57;5.10;59.60
39103;DHT22;24847;48.218;16.414;2023-11-18T04:23:59;4.80;60.60
39103;DHT22;24847;48.218;16.414;2023-11-18T04:29:03;5.10;59.70
39103;DHT22;24847;48.218;16.414;2023-11-18T04:34:05;5.00;59.70
39103;DHT22;24847;48.218;16.414;2023-11-18T04:39:07;4.90;59.70
39103;DHT22;24847;48.218;16.414;2023-11-18T04:44:13;5.10;59.10
39103;DHT22;24847;48.218;16.414;2023-11-18T04:49:16;5.20;58.90
39103;DHT22;24847;48.218;16.414;2023-11-18T04:54:19;5.10;59.20
39103;DHT22;24847;48.218;16.414;2023-11-18T04:59:23;5.20;58.70
39103;DHT22;24847;48.218;16.414;2023-11-18T05:04:25;5.00;59.40
39103;DHT22;24847;48.218;16.414;2023-11-18T05:09:27;5.30;58.80
39103;DHT22;24847;48.218;16.414;2023-11-18T05:14:30;5.30;58.50
39103;DHT22;24847;48.218;16.414;2023-11-18T05:19:33;5.30;58.50
39103;DHT22;24847;48.218;16.414;2023-11-18T05:24:35;5.30;58.50
39103;DHT22;24847;48.218;16.414;2023-11-18T05:29:38;4.90;59.60
39103;DHT22;24847;48.218;16.414;2023-11-18T05:34:42;5.20;58.80
39103;DHT22;24847;48.218;16.414;2023-11-18T05:39:44;5.30;59.00
39103;DHT22;24847;48.218;16.414;2023-11-18T05:44:47;5.20;59.20
39103;DHT22;24847;48.218;16.414;2023-11-18T05:49:49;5.30;58.70
39103;DHT22;24847;48.218;16.414;2023-11-18T05:54:52;5.20;58.90
39103;DHT22;24847;48.218;16.414;2023-11-18T05:59:55;5.40;59.00
39103;DHT22;24847;48.218;16.414;2023-11-18T06:04:58;5.10;59.60
39103;DHT22;24847;48.218;16.414;2023-11-18T06:10:00;5.00;60.00
39103;DHT22;24847;48.218;16.414;2023-11-18T06:15:08;5.10;59.80
39103;DHT22;24847;48.218;16.414;2023-11-18T06:20:15;5.20;59.50
39103;DHT22;24847;48.218;16.414;2023-11-18T06:25:17;5.30;59.30
39103;DHT22;24847;48.218;16.414;2023-11-18T06:30:21;5.30;59.30
39103;DHT22;24847;48.218;16.414;2023-11-18T06:35:23;5.20;59.70
39103;DHT22;24847;48.218;16.414;2023-11-18T06:40:26;5.10;60.30
39103;DHT22;24847;48.218;16.414;2023-11-18T06:45:29;5.30;60.00
39103;DHT22;24847;48.218;16.414;2023-11-18T06:50:32;5.30;59.70
39103;DHT22;24847;48.218;16.414;2023-11-18T06:55:35;5.30;60.00
39103;DHT22;24847;48.218;16.414;2023-11-18T07:00:39;5.40;59.70
39103;DHT22;24847;48.218;16.414;2023-11-18T07:05:41;5.20;60.30
39103;DHT22;24847;48.218;16.414;2023-11-18T07:10:45;5.40;60.10
39103;DHT22;24847;48.218;16.414;2023-11-18T07:15:49;5.40;60.10
39103;DHT22;24847;48.218;16.414;2023-11-18T07:20:51;5.20;60.60
39103;DHT22;24847;48.218;16.414;2023-11-18T07:25:53;5.10;61.30
39103;DHT22;24847;48.218;16.414;2023-11-18T07:30:58;5.10;61.30
39103;DHT22;24847;48.218;16.414;2023-11-18T07:36:00;5.20;60.20
39103;DHT22;24847;48.218;16.414;2023-11-18T07:41:06;5.30;60.30
39103;DHT22;24847;48.218;16.414;2023-11-18T07:46:10;5.40;60.40
39103;DHT22;24847;48.218;16.414;2023-11-18T07:51:14;5.30;60.00
39103;DHT22;24847;48.218;16.414;2023-11-18T07:56:17;5.10;60.50
39103;DHT22;24847;48.218;16.414;2023-11-18T08:01:20;5.10;61.00
39103;DHT22;24847;48.218;16.414;2023-11-18T08:06:22;5.10;60.50
39103;DHT22;24847;48.218;16.414;2023-11-18T08:11:26;5.10;61.20
39103;DHT22;24847;48.218;16.414;2023-11-18T08:16:31;5.00;61.10
39103;DHT22;24847;48.218;16.414;2023-11-18T08:21:34;5.20;60.70
39103;DHT22;24847;48.218;16.414;2023-11-18T08:26:38;5.30;60.40
39103;DHT22;24847;48.218;16.414;2023-11-18T08:31:42;5.20;60.80
39103;DHT22;24847;48.218;16.414;2023-11-18T08:36:44;5.40;60.20
39103;DHT22;24847;48.218;16.414;2023-11-18T08:41:48;5.30;59.90
39103;DHT22;24847;48.218;16.414;2023-11-18T08:46:53;5.30;60.00
39103;DHT22;24847;48.218;16.414;2023-11-18T08:52:14;5.40;59.90
39103;DHT22;24847;48.218;16.414;2023-11-18T08:57:18;5.70;59.40
39103;DHT22;24847;48.218;16.414;2023-11-18T09:02:27;5.70;59.40
39103;DHT22;24847;48.218;16.414;2023-11-18T09:07:30;5.50;59.80
39103;DHT22;24847;48.218;16.414;2023-11-18T09:12:32;5.60;59.80
39103;DHT22;24847;48.218;16.414;2023-11-18T09:17:36;5.80;59.60
39103;DHT22;24847;48.218;16.414;2023-11-18T09:22:38;5.70;59.50
39103;DHT22;24847;48.218;16.414;2023-11-18T09:27:41;5.90;59.00
39103;DHT22;24847;48.218;16.414;2023-11-18T09:32:45;5.80;59.10
39103;DHT22;24847;48.218;16.414;2023-11-18T09:37:48;5.80;59.20
39103;DHT22;24847;48.218;16.414;2023-11-18T09:42:51;5.90;59.40
39103;DHT22;24847;48.218;16.414;2023-11-18T09:47:55;6.10;59.40
39103;DHT22;24847;48.218;16.414;2023-11-18T09:53:00;6.10;59.20
39103;DHT22;24847;48.218;16.414;2023-11-18T09:58:12;6.10;59.30
39103;DHT22;24847;48.218;16.414;2023-11-18T10:03:18;6.10;59.70
39103;DHT22;24847;48.218;16.414;2023-11-18T10:08:23;6.10;59.30
39103;DHT22;24847;48.218;16.414;2023-11-18T10:13:26;6.00;59.70
39103;DHT22;24847;48.218;16.414;2023-11-18T10:18:30;5.90;60.50
39103;DHT22;24847;48.218;16.414;2023-11-18T10:23:35;5.90;60.80
39103;DHT22;24847;48.218;16.414;2023-11-18T10:28:38;5.70;61.30
39103;DHT22;24847;48.218;16.414;2023-11-18T10:33:42;5.90;61.20
39103;DHT22;24847;48.218;16.414;2023-11-18T10:38:44;5.80;60.80
39103;DHT22;24847;48.218;16.414;2023-11-18T10:44:05;5.90;60.80
39103;DHT22;24847;48.218;16.414;2023-11-18T10:49:09;5.90;60.80
39103;DHT22;24847;48.218;16.414;2023-11-18T10:54:11;5.60;61.30
39103;DHT22;24847;48.218;16.414;2023-11-18T10:59:17;5.80;60.80
39103;DHT22;24847;48.218;16.414;2023-11-18T11:04:22;6.00;60.40
39103;DHT22;24847;48.218;16.414;2023-11-18T11:09:25;5.90;60.00
39103;DHT22;24847;48.218;16.414;2023-11-18T11:14:33;5.90;60.40
39103;DHT22;24847;48.218;16.414;2023-11-18T11:19:50;5.80;60.20
39103;DHT22;24847;48.218;16.414;2023-11-18T11:25:05;5.80;61.50
39103;DHT22;24847;48.218;16.414;2023-11-18T11:30:22;5.60;62.00
39103;DHT22;24847;48.218;16.414;2023-11-18T11:35:31;5.60;62.80
39103;DHT22;24847;48.218;16.414;2023-11-18T11:40:37;5.80;62.30
39103;DHT22;24847;48.218;16.414;2023-11-18T11:45:40;5.90;62.20
39103;DHT22;24847;48.218;16.414;2023-11-18T11:51:02;6.00;62.30
39103;DHT22;24847;48.218;16.414;2023-11-18T11:56:14;6.00;62.40
39103;DHT22;24847;48.218;16.414;2023-11-18T12:01:24;5.90;63.00
39103;DHT22;24847;48.218;16.414;2023-11-18T12:06:32;6.20;61.60
39103;DHT22;24847;48.218;16.414;2023-11-18T12:11:36;6.10;61.50
39103;DHT22;24847;48.218;16.414;2023-11-18T12:17:02;5.80;63.00
39103;DHT22;24847;48.218;16.414;2023-11-18T12:22:16;5.90;62.10
39103;DHT22;24847;48.218;16.414;2023-11-18T12:27:42;6.00;62.00
39103;DHT22;24847;48.218;16.414;2023-11-18T12:32:58;5.90;61.70
39103;DHT22;24847;48.218;16.414;2023-11-18T12:38:36;5.80;63.00
39103;DHT22;24847;48.218;16.414;2023-11-18T12:43:48;5.90;62.40
39103;DHT22;24847;48.218;16.414;2023-11-18T12:48:57;6.10;61.40
39103;DHT22;24847;48.218;16.414;2023-11-18T12:54:02;6.00;61.10
39103;DHT22;24847;48.218;16.414;2023-11-18T12:59:07;6.00;60.60
39103;DHT22;24847;48.218;16.414;2023-11-18T13:04:10;6.10;60.60
39103;DHT22;24847;48.218;16.414;2023-11-18T13:09:16;6.00;60.90
39103;DHT22;24847;48.218;16.414;2023-11-18T13:14:26;5.80;62.10
39103;DHT22;24847;48.218;16.414;2023-11-18T13:19:31;5.80;61.90
39103;DHT22;24847;48.218;16.414;2023-11-18T13:24:36;6.00;60.40
39103;DHT22;24847;48.218;16.414;2023-11-18T13:29:44;5.80;61.00
39103;DHT22;24847;48.218;16.414;2023-11-18T13:34:49;5.70;61.40
39103;DHT22;24847;48.218;16.414;2023-11-18T13:39:56;5.90;60.70
39103;DHT22;24847;48.218;16.414;2023-11-18T13:45:05;6.00;60.40
39103;DHT22;24847;48.218;16.414;2023-11-18T13:50:34;5.90;60.00
39103;DHT22;24847;48.218;16.414;2023-11-18T13:55:38;5.80;59.30
39103;DHT22;24847;48.218;16.414;2023-11-18T14:00:40;5.90;59.30
39103;DHT22;24847;48.218;16.414;2023-11-18T14:05:43;5.90;60.00
39103;DHT22;24847;48.218;16.414;2023-11-18T14:10:47;6.00;59.20
39103;DHT22;24847;48.218;16.414;2023-11-18T14:15:50;5.90;60.00
39103;DHT22;24847;48.218;16.414;2023-11-18T14:20:56;5.90;59.20
39103;DHT22;24847;48.218;16.414;2023-11-18T14:26:00;5.90;59.40
39103;DHT22;24847;48.218;16.414;2023-11-18T14:31:03;6.00;58.70
39103;DHT22;24847;48.218;16.414;2023-11-18T14:36:08;5.70;58.90
39103;DHT22;24847;48.218;16.414;2023-11-18T14:41:13;5.80;58.90
39103;DHT22;24847;48.218;16.414;2023-11-18T14:46:15;5.90;58.30
39103;DHT22;24847;48.218;16.414;2023-11-18T14:51:19;6.00;58.10
39103;DHT22;24847;48.218;16.414;2023-11-18T14:56:23;5.80;58.60
39103;DHT22;24847;48.218;16.414;2023-11-18T15:01:25;5.80;57.90
39103;DHT22;24847;48.218;16.414;2023-11-18T15:06:27;5.70;57.80
39103;DHT22;24847;48.218;16.414;2023-11-18T15:11:31;5.70;57.90
39103;DHT22;24847;48.218;16.414;2023-11-18T15:16:34;5.80;57.40
39103;DHT22;24847;48.218;16.414;2023-11-18T15:21:36;5.70;57.40
39103;DHT22;24847;48.218;16.414;2023-11-18T15:26:40;5.50;57.50
39103;DHT22;24847;48.218;16.414;2023-11-18T15:31:42;5.60;57.40
39103;DHT22;24847;48.218;16.414;2023-11-18T15:36:44;5.70;57.50
39103;DHT22;24847;48.218;16.414;2023-11-18T15:41:49;5.90;56.70
39103;DHT22;24847;48.218;16.414;2023-11-18T15:46:51;5.60;56.70
39103;DHT22;24847;48.218;16.414;2023-11-18T15:51:53;5.70;56.30
39103;DHT22;24847;48.218;16.414;2023-11-18T15:56:57;5.80;56.20
39103;DHT22;24847;48.218;16.414;2023-11-18T16:01:59;5.60;56.10
39103;DHT22;24847;48.218;16.414;2023-11-18T16:07:23;5.50;55.60
39103;DHT22;24847;48.218;16.414;2023-11-18T16:12:27;5.70;54.50
39103;DHT22;24847;48.218;16.414;2023-11-18T16:17:29;5.60;54.20
39103;DHT22;24847;48.218;16.414;2023-11-18T16:22:31;5.60;54.50
39103;DHT22;24847;48.218;16.414;2023-11-18T16:27:35;5.70;54.70
39103;DHT22;24847;48.218;16.414;2023-11-18T16:32:37;5.60;55.30
39103;DHT22;24847;48.218;16.414;2023-11-18T16:37:39;5.70;55.20
39103;DHT22;24847;48.218;16.414;2023-11-18T16:42:44;5.80;55.20
39103;DHT22;24847;48.218;16.414;2023-11-18T16:47:47;5.60;54.10
39103;DHT22;24847;48.218;16.414;2023-11-18T16:52:51;5.50;53.50
39103;DHT22;24847;48.218;16.414;2023-11-18T16:57:55;5.70;54.10
39103;DHT22;24847;48.218;16.414;2023-11-18T17:02:58;5.60;53.70
39103;DHT22;24847;48.218;16.414;2023-11-18T17:08:01;5.70;54.20
39103;DHT22;24847;48.218;16.414;2023-11-18T17:13:07;5.70;53.90
39103;DHT22;24847;48.218;16.414;2023-11-18T17:18:09;5.60;54.10
39103;DHT22;24847;48.218;16.414;2023-11-18T17:23:11;5.80;54.50
39103;DHT22;24847;48.218;16.414;2023-11-18T17:28:14;5.70;54.50
39103;DHT22;24847;48.218;16.414;2023-11-18T17:33:18;5.60;54.70
39103;DHT22;24847;48.218;16.414;2023-11-18T17:38:20;5.50;55.00
39103;DHT22;24847;48.218;16.414;2023-11-18T17:43:23;5.50;55.10
39103;DHT22;24847;48.218;16.414;2023-11-18T17:48:25;5.40;55.30
39103;DHT22;24847;48.218;16.414;2023-11-18T17:53:27;5.50;55.40
39103;DHT22;24847;48.218;16.414;2023-11-18T17:58:31;5.60;55.60
39103;DHT22;24847;48.218;16.414;2023-11-18T18:03:33;5.60;55.80
39103;DHT22;24847;48.218;16.414;2023-11-18T18:08:36;5.50;55.80
39103;DHT22;24847;48.218;16.414;2023-11-18T18:13:40;5.50;55.90
39103;DHT22;24847;48.218;16.414;2023-11-18T18:18:42;5.50;56.70
39103;DHT22;24847;48.218;16.414;2023-11-18T18:23:45;5.50;55.50
39103;DHT22;24847;48.218;16.414;2023-11-18T18:28:49;5.60;55.50
39103;DHT22;24847;48.218;16.414;2023-11-18T18:33:51;5.60;55.30
39103;DHT22;24847;48.218;16.414;2023-11-18T18:38:53;5.70;55.00
39103;DHT22;24847;48.218;16.414;2023-11-18T18:43:56;5.50;54.90
39103;DHT22;24847;48.218;16.414;2023-11-18T18:48:59;5.50;54.90
39103;DHT22;24847;48.218;16.414;2023-11-18T18:54:02;5.30;55.10
39103;DHT22;24847;48.218;16.414;2023-11-18T18:59:06;5.30;55.40
39103;DHT22;24847;48.218;16.414;2023-11-18T19:04:11;5.30;55.50
39103;DHT22;24847;48.218;16.414;2023-11-18T19:09:13;5.30;55.80
39103;DHT22;24847;48.218;16.414;2023-11-18T19:14:19;5.40;55.90
39103;DHT22;24847;48.218;16.414;2023-11-18T19:19:21;5.40;55.90
39103;DHT22;24847;48.218;16.414;2023-11-18T19:24:23;5.30;55.50
39103;DHT22;24847;48.218;16.414;2023-11-18T19:29:27;5.40;55.50
39103;DHT22;24847;48.218;16.414;2023-11-18T19:34:29;5.40;55.50
39103;DHT22;24847;48.218;16.414;2023-11-18T19:39:31;5.40;55.70
39103;DHT22;24847;48.218;16.414;2023-11-18T19:44:35;5.40;56.40
39103;DHT22;24847;48.218;16.414;2023-11-18T19:49:37;5.30;56.10
39103;DHT22;24847;48.218;16.414;2023-11-18T19:54:42;5.30;56.40
39103;DHT22;24847;48.218;16.414;2023-11-18T19:59:46;5.20;56.50
39103;DHT22;24847;48.218;16.414;2023-11-18T20:04:49;5.20;56.70
39103;DHT22;24847;48.218;16.414;2023-11-18T20:09:52;5.10;57.40
39103;DHT22;24847;48.218;16.414;2023-11-18T20:14:57;5.00;57.70
39103;DHT22;24847;48.218;16.414;2023-11-18T20:19:59;4.90;58.00
39103;DHT22;24847;48.218;16.414;2023-11-18T20:25:01;4.80;58.30
39103;DHT22;24847;48.218;16.414;2023-11-18T20:30:06;4.90;58.00
39103;DHT22;24847;48.218;16.414;2023-11-18T20:35:11;4.80;58.00
39103;DHT22;24847;48.218;16.414;2023-11-18T20:40:32;4.80;58.20
39103;DHT22;24847;48.218;16.414;2023-11-18T20:45:56;4.80;57.80
39103;DHT22;24847;48.218;16.414;2023-11-18T20:50:59;4.90;57.70
39103;DHT22;24847;48.218;16.414;2023-11-18T20:56:01;4.80;57.40
39103;DHT22;24847;48.218;16.414;2023-11-18T21:01:05;4.70;57.90
39103;DHT22;24847;48.218;16.414;2023-11-18T21:06:11;4.80;57.90
39103;DHT22;24847;48.218;16.414;2023-11-18T21:11:13;4.70;57.90
39103;DHT22;24847;48.218;16.414;2023-11-18T21:16:16;4.70;58.30
39103;DHT22;24847;48.218;16.414;2023-11-18T21:21:18;4.60;59.10
39103;DHT22;24847;48.218;16.414;2023-11-18T21:26:22;4.70;58.80
39103;DHT22;24847;48.218;16.414;2023-11-18T21:31:26;4.60;59.00
39103;DHT22;24847;48.218;16.414;2023-11-18T21:36:32;4.60;59.40
39103;DHT22;24847;48.218;16.414;2023-11-18T21:41:35;4.50;59.80
39103;DHT22;24847;48.218;16.414;2023-11-18T21:46:38;4.40;59.80
39103;DHT22;24847;48.218;16.414;2023-11-18T21:51:41;4.30;60.80
39103;DHT22;24847;48.218;16.414;2023-11-18T21:56:43;4.20;61.20
39103;DHT22;24847;48.218;16.414;2023-11-18T22:01:47;4.30;61.20
39103;DHT22;24847;48.218;16.414;2023-11-18T22:06:50;4.20;61.60
39103;DHT22;24847;48.218;16.414;2023-11-18T22:11:52;4.30;61.50
39103;DHT22;24847;48.218;16.414;2023-11-18T22:16:58;4.30;62.10
39103;DHT22;24847;48.218;16.414;2023-11-18T22:22:01;4.20;62.70
39103;DHT22;24847;48.218;16.414;2023-11-18T22:27:04;4.20;63.00
39103;DHT22;24847;48.218;16.414;2023-11-18T22:32:11;4.20;62.90
39103;DHT22;24847;48.218;16.414;2023-11-18T22:37:13;4.40;62.80
39103;DHT22;24847;48.218;16.414;2023-11-18T22:42:15;4.20;64.10
39103;DHT22;24847;48.218;16.414;2023-11-18T22:47:19;4.10;63.00
39103;DHT22;24847;48.218;16.414;2023-11-18T22:52:22;4.10;63.20
39103;DHT22;24847;48.218;16.414;2023-11-18T22:57:26;4.20;63.00
39103;DHT22;24847;48.218;16.414;2023-11-18T23:02:29;4.10;63.10
39103;DHT22;24847;48.218;16.414;2023-11-18T23:07:32;4.00;64.20
39103;DHT22;24847;48.218;16.414;2023-11-18T23:12:34;3.80;67.20
39103;DHT22;24847;48.218;16.414;2023-11-18T23:17:38;3.90;67.50
39103;DHT22;24847;48.218;16.414;2023-11-18T23:22:40;3.90;67.70
39103;DHT22;24847;48.218;16.414;2023-11-18T23:27:42;3.60;68.80
39103;DHT22;24847;48.218;16.414;2023-11-18T23:32:47;3.60;69.00
39103;DHT22;24847;48.218;16.414;2023-11-18T23:37:50;3.60;68.40
39103;DHT22;24847;48.218;16.414;2023-11-18T23:42:52;3.70;68.20
39103;DHT22;24847;48.218;16.414;2023-11-18T23:47:56;3.70;67.50
39103;DHT22;24847;48.218;16.414;2023-11-18T23:52:58;3.80;67.20
39103;DHT22;24847;48.218;16.414;2023-11-18T23:58:00;3.80;67.30
